createdAt,value
2018-04-10T00:01:05.458Z,5.50
2018-04-10T00:03:33.803Z,8.70
2018-04-10T00:06:01.355Z,5.57
2018-04-10T00:08:28.949Z,7.20
2018-04-10T00:10:57.271Z,8.80
2018-04-10T00:13:24.848Z,6.60
2018-04-10T00:15:52.405Z,6.27
2018-04-10T00:18:19.988Z,12.97
2018-04-10T00:20:48.306Z,9.93
2018-04-10T00:23:15.883Z,8.30
2018-04-10T00:25:43.432Z,10.40
2018-04-10T00:28:11.014Z,10.27
2018-04-10T00:30:38.576Z,12.40
2018-04-10T00:33:06.182Z,9.33
2018-04-10T00:35:33.769Z,12.50
2018-04-10T00:38:01.359Z,14.80
2018-04-10T00:40:28.917Z,9.47
2018-04-10T00:42:56.510Z,9.97
2018-04-10T00:45:24.086Z,7.57
2018-04-10T00:47:51.645Z,6.43
2018-04-10T00:50:19.215Z,5.77
2018-04-10T00:52:46.764Z,6.37
2018-04-10T00:55:14.378Z,5.17
2018-04-10T00:57:41.936Z,4.90
2018-04-10T01:00:09.509Z,7.17
2018-04-10T01:02:37.064Z,4.50
2018-04-10T01:05:04.653Z,5.00
2018-04-10T01:07:32.217Z,5.83
2018-04-10T01:09:59.806Z,5.10
2018-04-10T01:12:27.362Z,4.90
2018-04-10T01:14:54.938Z,4.40
2018-04-10T01:17:22.531Z,4.93
2018-04-10T01:19:50.120Z,5.20
2018-04-10T01:22:17.724Z,7.57
2018-04-10T01:24:45.293Z,5.13
2018-04-10T01:27:12.853Z,6.83
2018-04-10T01:29:40.433Z,6.30
2018-04-10T01:32:07.990Z,9.17
2018-04-10T01:34:36.344Z,9.80
2018-04-10T01:37:03.923Z,7.10
2018-04-10T01:39:31.503Z,8.37
2018-04-10T01:41:59.068Z,8.07
2018-04-10T01:44:26.621Z,5.30
2018-04-10T01:46:54.205Z,4.60
2018-04-10T01:49:21.754Z,4.80
2018-04-10T01:51:49.333Z,4.93
2018-04-10T01:54:16.889Z,5.50
2018-04-10T01:56:44.464Z,5.10
2018-04-10T01:59:12.041Z,5.73
2018-04-10T02:01:40.388Z,4.70
2018-04-10T02:04:08.721Z,5.47
2018-04-10T02:06:36.299Z,4.60
2018-04-10T02:09:03.849Z,3.93
2018-04-10T02:11:31.431Z,4.43
2018-04-10T02:13:58.974Z,3.80
2018-04-10T02:16:26.535Z,3.93
2018-04-10T02:18:54.092Z,5.13
2018-04-10T02:21:21.675Z,4.53
2018-04-10T02:23:49.235Z,3.93
2018-04-10T02:26:16.809Z,4.53
2018-04-10T02:28:44.376Z,3.50
2018-04-10T02:31:11.970Z,4.10
2018-04-10T02:33:39.550Z,4.17
2018-04-10T02:36:07.092Z,3.87
2018-04-10T02:38:34.660Z,5.03
2018-04-10T02:41:02.216Z,3.67
2018-04-10T02:43:29.809Z,4.20
2018-04-10T02:45:57.396Z,4.17
2018-04-10T02:48:25.019Z,4.40
2018-04-10T02:50:52.576Z,4.80
2018-04-10T02:53:20.155Z,4.20
2018-04-10T02:55:47.766Z,5.33
2018-04-10T02:58:15.394Z,4.10
2018-04-10T03:00:46.689Z,4.90
2018-04-10T03:03:14.869Z,4.20
2018-04-10T03:05:42.708Z,4.63
2018-04-10T03:08:10.284Z,4.40
2018-04-10T03:10:37.833Z,4.13
2018-04-10T03:13:05.412Z,4.40
2018-04-10T03:15:32.963Z,5.40
2018-04-10T03:18:00.534Z,6.00
2018-04-10T03:20:28.109Z,8.60
2018-04-10T03:22:55.689Z,5.13
2018-04-10T03:25:23.268Z,4.83
2018-04-10T03:27:51.600Z,9.20
2018-04-10T03:30:19.169Z,10.20
2018-04-10T03:32:46.792Z,5.50
2018-04-10T03:35:14.387Z,9.57
2018-04-10T03:37:42.011Z,18.70
2018-04-10T03:40:09.581Z,16.97
2018-04-10T03:42:37.196Z,19.10
2018-04-10T03:45:05.553Z,15.30
2018-04-10T03:47:33.105Z,9.40
2018-04-10T03:50:00.688Z,5.53
2018-04-10T03:52:28.249Z,5.10
2018-04-10T03:54:56.617Z,6.90
2018-04-10T03:57:24.933Z,7.70
2018-04-10T03:59:52.514Z,6.67
2018-04-10T04:02:20.069Z,9.23
2018-04-10T04:04:47.649Z,6.90
2018-04-10T04:07:15.207Z,5.50
2018-04-10T04:09:42.791Z,6.60
2018-04-10T04:12:10.357Z,5.07
2018-04-10T04:14:38.700Z,4.60
2018-04-10T04:17:18.166Z,5.90
2018-04-10T04:20:12.132Z,10.13
2018-04-10T04:22:39.693Z,7.80
2018-04-10T04:25:07.261Z,4.40
2018-04-10T04:27:35.598Z,4.20
2018-04-10T04:30:03.192Z,4.87
2018-04-10T04:32:30.749Z,5.10
2018-04-10T04:34:58.331Z,5.97
2018-04-10T04:37:25.881Z,5.33
2018-04-10T04:39:54.207Z,7.67
2018-04-10T04:42:21.765Z,10.77
2018-04-10T04:44:49.344Z,14.00
2018-04-10T04:47:16.893Z,8.67
2018-04-10T04:49:44.477Z,6.27
2018-04-10T04:52:12.055Z,5.30
2018-04-10T04:54:39.648Z,5.07
2018-04-10T04:57:07.205Z,5.37
2018-04-10T04:59:34.808Z,5.13
2018-04-10T05:02:02.360Z,6.53
2018-04-10T05:04:29.912Z,5.20
2018-04-10T05:06:58.248Z,5.07
2018-04-10T05:09:25.800Z,4.50
2018-04-10T05:11:53.382Z,5.13
2018-04-10T05:14:20.927Z,5.40
2018-04-10T05:16:48.491Z,7.73
2018-04-10T05:19:16.040Z,7.97
2018-04-10T05:21:43.613Z,6.60
2018-04-10T05:24:11.161Z,15.07
2018-04-10T05:26:38.740Z,6.77
2018-04-10T05:29:06.294Z,7.47
2018-04-10T05:31:33.860Z,4.27
2018-04-10T05:34:01.581Z,4.60
2018-04-10T05:36:29.147Z,4.43
2018-04-10T05:38:56.700Z,4.50
2018-04-10T05:41:24.277Z,4.30
2018-04-10T05:43:52.019Z,5.30
2018-04-10T05:46:19.592Z,6.20
2018-04-10T05:48:47.148Z,11.27
2018-04-10T05:51:14.717Z,7.83
2018-04-10T05:53:42.321Z,7.40
2018-04-10T05:56:09.889Z,7.30
2018-04-10T05:58:37.437Z,8.30
2018-04-10T06:01:04.996Z,6.77
2018-04-10T06:03:32.565Z,6.00
2018-04-10T06:06:00.113Z,5.93
2018-04-10T06:08:27.880Z,10.80
2018-04-10T06:10:55.442Z,10.77
2018-04-10T06:13:23.017Z,7.47
2018-04-10T06:15:51.356Z,5.53
2018-04-10T06:18:18.917Z,8.87
2018-04-10T06:20:46.477Z,11.33
2018-04-10T06:23:14.055Z,11.17
2018-04-10T06:25:41.600Z,7.40
2018-04-10T06:28:09.177Z,18.00
2018-04-10T06:30:36.720Z,10.80
2018-04-10T06:33:05.797Z,8.27
2018-04-10T06:35:33.353Z,6.33
2018-04-10T06:38:00.929Z,5.80
2018-04-10T06:40:28.481Z,6.20
2018-04-10T06:42:56.053Z,5.80
2018-04-10T06:45:23.778Z,4.83
2018-04-10T06:47:51.350Z,5.50
2018-04-10T06:50:18.896Z,4.57
2018-04-10T06:52:46.468Z,5.30
2018-04-10T06:55:14.012Z,5.70
2018-04-10T06:57:41.600Z,5.50
2018-04-10T07:00:09.185Z,5.50
2018-04-10T07:02:36.760Z,5.10
2018-04-10T07:05:04.305Z,3.83
2018-04-10T07:07:32.698Z,5.10
2018-04-10T07:10:01.861Z,5.13
2018-04-10T07:12:29.407Z,4.53
2018-04-10T07:14:56.981Z,4.67
2018-04-10T07:17:24.533Z,4.27
2018-04-10T07:19:52.112Z,4.40
2018-04-10T07:22:20.456Z,4.47
2018-04-10T07:24:48.030Z,3.57
2018-04-10T07:27:15.594Z,4.80
2018-04-10T07:29:43.193Z,4.50
2018-04-10T07:32:10.752Z,3.63
2018-04-10T07:34:38.353Z,3.43
2018-04-10T07:37:05.913Z,4.50
2018-04-10T07:39:33.488Z,4.33
2018-04-10T07:42:01.048Z,3.80
2018-04-10T07:44:29.472Z,3.13
2018-04-10T07:46:57.017Z,4.20
2018-04-10T07:49:26.056Z,3.20
2018-04-10T07:51:53.609Z,4.07
2018-04-10T07:54:21.178Z,3.67
2018-04-10T07:56:48.746Z,4.37
2018-04-10T07:59:16.332Z,3.70
2018-04-10T08:01:44.660Z,3.50
2018-04-10T08:04:12.242Z,3.67
2018-04-10T08:06:39.788Z,2.23
2018-04-10T08:09:07.358Z,3.37
2018-04-10T08:11:35.049Z,3.20
2018-04-10T08:14:02.614Z,4.03
2018-04-10T08:16:30.933Z,4.07
2018-04-10T08:18:58.506Z,3.47
2018-04-10T08:21:26.112Z,3.50
2018-04-10T08:23:53.659Z,2.57
2018-04-10T08:26:21.992Z,3.83
2018-04-10T08:28:49.544Z,3.43
2018-04-10T08:31:17.113Z,2.73
2018-04-10T08:33:45.425Z,1.90
2018-04-10T08:36:13.765Z,2.37
2018-04-10T08:38:41.317Z,2.90
2018-04-10T08:41:08.889Z,1.90
2018-04-10T08:43:36.436Z,2.13
2018-04-10T08:46:04.004Z,1.97
2018-04-10T08:48:31.562Z,1.50
2018-04-10T08:50:59.146Z,1.93
2018-04-10T08:53:26.688Z,1.47
2018-04-10T08:55:54.256Z,1.70
2018-04-10T08:58:21.796Z,1.93
2018-04-10T09:00:49.363Z,2.50
2018-04-10T09:03:16.904Z,2.20
2018-04-10T09:05:44.473Z,1.77
2018-04-10T09:08:12.025Z,2.20
2018-04-10T09:10:39.601Z,1.90
2018-04-10T09:13:07.183Z,1.90
2018-04-10T09:15:34.757Z,2.00
2018-04-10T09:18:10.495Z,1.80
2018-04-10T09:20:44.070Z,1.83
2018-04-10T09:23:11.619Z,2.20
2018-04-10T09:25:39.189Z,1.80
2018-04-10T09:28:06.737Z,1.80
2018-04-10T09:30:34.318Z,2.43
2018-04-10T09:33:01.856Z,2.10
2018-04-10T09:35:29.441Z,2.00
2018-04-10T09:37:56.995Z,2.20
2018-04-10T09:40:25.384Z,2.20
2018-04-10T09:42:53.716Z,1.83
2018-04-10T09:45:21.270Z,2.40
2018-04-10T09:47:48.856Z,2.10
2018-04-10T09:50:16.437Z,1.80
2018-04-10T09:52:44.001Z,2.70
2018-04-10T09:55:11.555Z,4.87
2018-04-10T09:57:39.129Z,2.10
2018-04-10T10:00:07.447Z,2.93
2018-04-10T10:02:35.012Z,1.90
2018-04-10T10:05:02.577Z,2.07
2018-04-10T10:07:30.154Z,2.30
2018-04-10T10:09:57.708Z,1.97
2018-04-10T10:12:25.281Z,3.13
2018-04-10T10:14:52.831Z,2.40
2018-04-10T10:17:20.392Z,2.23
2018-04-10T10:19:47.965Z,1.90
2018-04-10T10:22:15.536Z,3.13
2018-04-10T10:24:43.856Z,2.33
2018-04-10T10:27:11.429Z,2.27
2018-04-10T10:29:39.018Z,2.93
2018-04-10T10:32:06.589Z,1.53
2018-04-10T10:34:34.900Z,2.70
2018-04-10T10:37:02.477Z,2.40
2018-04-10T10:39:30.068Z,2.10
2018-04-10T10:41:57.637Z,2.10
2018-04-10T10:44:25.949Z,1.90
2018-04-10T10:46:53.529Z,2.37
2018-04-10T10:49:21.079Z,2.00
2018-04-10T10:51:48.625Z,2.30
2018-04-10T10:54:16.197Z,2.70
2018-04-10T10:56:43.748Z,3.00
2018-04-10T10:59:11.312Z,2.90
2018-04-10T11:01:38.860Z,2.67
2018-04-10T11:04:06.450Z,2.50
2018-04-10T11:06:35.506Z,2.90
2018-04-10T11:09:03.099Z,2.53
2018-04-10T11:11:30.649Z,2.43
2018-04-10T11:13:58.217Z,2.37
2018-04-10T11:16:25.760Z,2.50
2018-04-10T11:18:53.333Z,2.00
2018-04-10T11:21:20.885Z,2.60
2018-04-10T11:23:48.456Z,2.53
2018-04-10T11:26:16.005Z,2.80
2018-04-10T11:28:44.491Z,3.43
2018-04-10T11:31:12.048Z,3.83
2018-04-10T11:33:39.611Z,2.00
2018-04-10T11:36:07.916Z,2.60
2018-04-10T11:38:35.488Z,2.30
2018-04-10T11:41:03.093Z,2.70
2018-04-10T11:43:30.660Z,2.70
2018-04-10T11:45:58.208Z,3.20
2018-04-10T11:48:25.772Z,3.00
2018-04-10T11:50:53.390Z,2.40
2018-04-10T11:53:20.960Z,2.80
2018-04-10T11:55:48.509Z,2.60
2018-04-10T11:58:16.084Z,2.63
2018-04-10T12:00:43.634Z,3.20
2018-04-10T12:03:11.208Z,2.77
2018-04-10T12:05:38.757Z,2.83
2018-04-10T12:08:06.333Z,2.47
2018-04-10T12:10:34.361Z,2.57
2018-04-10T12:13:02.722Z,2.40
2018-04-10T12:15:31.060Z,2.50
2018-04-10T12:17:58.610Z,3.40
2018-04-10T12:20:26.180Z,2.60
2018-04-10T12:22:54.493Z,2.57
2018-04-10T12:25:22.062Z,3.10
2018-04-10T12:27:49.608Z,3.00
2018-04-10T12:30:17.176Z,3.03
2018-04-10T12:32:45.501Z,2.80
2018-04-10T12:35:13.068Z,2.87
2018-04-10T12:37:40.617Z,3.30
2018-04-10T12:40:08.184Z,4.07
2018-04-10T12:42:35.730Z,3.70
2018-04-10T12:45:03.301Z,2.90
2018-04-10T12:47:30.849Z,2.90
2018-04-10T12:49:58.422Z,2.07
2018-04-10T12:52:25.968Z,2.47
2018-04-10T12:54:53.532Z,2.33
2018-04-10T12:57:21.106Z,2.70
2018-04-10T12:59:49.448Z,2.07
2018-04-10T13:02:17.007Z,2.00
2018-04-10T13:04:44.576Z,1.93
2018-04-10T13:07:12.130Z,1.83
2018-04-10T13:09:39.711Z,1.73
2018-04-10T13:12:07.265Z,1.27
2018-04-10T13:14:34.837Z,1.83
2018-04-10T13:17:02.392Z,1.80
2018-04-10T13:19:29.965Z,1.60
2018-04-10T13:21:57.512Z,1.63
2018-04-10T13:24:25.137Z,1.80
2018-04-10T13:26:52.684Z,1.50
2018-04-10T13:29:20.277Z,1.47
2018-04-10T13:31:47.827Z,1.50
2018-04-10T13:34:15.376Z,1.20
2018-04-10T13:36:42.951Z,1.10
2018-04-10T13:39:10.497Z,1.43
2018-04-10T13:41:38.068Z,1.40
2018-04-10T13:44:05.610Z,1.27
2018-04-10T13:46:33.176Z,1.37
2018-04-10T13:49:00.733Z,1.60
2018-04-10T13:51:28.296Z,1.20
2018-04-10T13:53:55.846Z,1.43
2018-04-10T13:56:23.418Z,1.70
2018-04-10T13:58:50.967Z,1.50
2018-04-10T14:01:18.637Z,1.77
2018-04-10T14:03:46.343Z,1.70
2018-04-10T14:06:13.925Z,1.60
2018-04-10T14:08:41.478Z,1.67
2018-04-10T14:11:09.822Z,1.50
2018-04-10T14:13:37.374Z,1.37
2018-04-10T14:16:04.949Z,1.30
2018-04-10T14:18:32.496Z,2.03
2018-04-10T14:21:00.536Z,1.20
2018-04-10T14:23:28.080Z,1.60
2018-04-10T14:25:55.653Z,1.83
2018-04-10T14:28:23.200Z,1.17
2018-04-10T14:30:50.780Z,1.10
2018-04-10T14:33:18.327Z,0.90
2018-04-10T14:35:45.873Z,1.00
2018-04-10T14:38:13.462Z,1.37
2018-04-10T14:40:41.015Z,1.70
2018-04-10T14:43:08.590Z,2.30
2018-04-10T14:45:36.143Z,1.10
2018-04-10T14:48:03.725Z,1.20
2018-04-10T14:50:31.302Z,1.27
2018-04-10T14:52:59.638Z,1.00
2018-04-10T14:55:27.179Z,1.10
2018-04-10T14:57:54.740Z,1.37
2018-04-10T15:00:22.281Z,1.20
2018-04-10T15:02:52.540Z,0.90
2018-04-10T15:05:20.080Z,0.83
2018-04-10T15:07:47.652Z,1.30
2018-04-10T15:10:15.201Z,1.40
2018-04-10T15:12:42.772Z,1.10
2018-04-10T15:15:10.315Z,1.30
2018-04-10T15:17:37.888Z,3.00
2018-04-10T15:20:05.441Z,1.40
2018-04-10T15:22:33.004Z,1.40
2018-04-10T15:25:01.322Z,1.50
2018-04-10T15:27:29.659Z,2.20
2018-04-10T15:29:57.204Z,2.07
2018-04-10T15:32:24.773Z,1.67
2018-04-10T15:34:52.329Z,1.73
2018-04-10T15:37:19.902Z,1.70
2018-04-10T15:39:48.959Z,1.47
2018-04-10T15:42:16.537Z,1.70
2018-04-10T15:44:44.076Z,1.67
2018-04-10T15:47:12.177Z,1.73
2018-04-10T15:49:40.518Z,1.27
2018-04-10T15:52:08.097Z,1.80
2018-04-10T15:54:35.645Z,1.60
2018-04-10T15:57:03.184Z,0.90
2018-04-10T15:59:30.759Z,1.00
2018-04-10T16:01:58.307Z,2.80
2018-04-10T16:04:25.881Z,1.87
2018-04-10T16:06:53.421Z,2.23
2018-04-10T16:09:21.000Z,2.47
2018-04-10T16:11:48.545Z,1.50
2018-04-10T16:14:16.118Z,1.27
2018-04-10T16:16:44.280Z,0.87
2018-04-10T16:19:11.849Z,1.20
2018-04-10T16:21:41.041Z,1.40
2018-04-10T16:24:08.613Z,0.87
2018-04-10T16:26:36.157Z,1.33
2018-04-10T16:29:03.729Z,1.30
2018-04-10T16:31:31.275Z,1.43
2018-04-10T16:33:58.860Z,1.07
2018-04-10T16:36:26.409Z,1.00
2018-04-10T16:38:53.972Z,1.90
2018-04-10T16:41:21.514Z,1.60
2018-04-10T16:43:49.084Z,2.33
2018-04-10T16:46:16.637Z,1.60
2018-04-10T16:48:44.250Z,1.33
2018-04-10T16:51:11.776Z,0.87
2018-04-10T16:53:40.041Z,1.63
2018-04-10T16:56:07.601Z,1.43
2018-04-10T16:58:35.173Z,1.17
2018-04-10T17:01:02.716Z,0.90
2018-04-10T17:03:30.293Z,1.40
2018-04-10T17:05:57.846Z,1.60
2018-04-10T17:08:25.398Z,3.70
2018-04-10T17:10:52.977Z,2.10
2018-04-10T17:13:20.516Z,1.57
2018-04-10T17:15:48.882Z,3.70
2018-04-10T17:18:16.436Z,1.93
2018-04-10T17:20:44.000Z,2.03
2018-04-10T17:23:11.555Z,1.53
2018-04-10T17:25:39.120Z,0.87
2018-04-10T17:28:06.664Z,0.80
2018-04-10T17:30:34.239Z,0.73
2018-04-10T17:33:02.558Z,0.77
2018-04-10T17:35:30.900Z,0.90
2018-04-10T17:37:58.449Z,0.80
2018-04-10T17:40:26.018Z,1.07
2018-04-10T17:42:53.560Z,1.13
2018-04-10T17:45:21.129Z,1.30
2018-04-10T17:47:49.201Z,1.00
2018-04-10T17:50:16.768Z,0.77
2018-04-10T17:52:45.072Z,1.00
2018-04-10T17:55:12.981Z,1.50
2018-04-10T17:57:40.578Z,5.70
2018-04-10T18:00:08.154Z,2.80
2018-04-10T18:02:35.840Z,1.97
2018-04-10T18:05:03.475Z,1.17
2018-04-10T18:07:31.033Z,0.93
2018-04-10T18:09:58.602Z,0.80
2018-04-10T18:12:26.909Z,0.90
2018-04-10T18:14:55.105Z,1.60
2018-04-10T18:17:22.686Z,1.00
2018-04-10T18:19:50.230Z,2.97
2018-04-10T18:22:17.813Z,2.43
2018-04-10T18:24:45.361Z,1.83
2018-04-10T18:27:12.938Z,3.27
2018-04-10T18:29:40.480Z,1.80
2018-04-10T18:32:08.053Z,1.10
2018-04-10T18:34:35.600Z,1.40
2018-04-10T18:37:03.180Z,1.60
2018-04-10T18:39:30.734Z,1.90
2018-04-10T18:41:59.077Z,1.50
2018-04-10T18:44:27.393Z,0.80
2018-04-10T18:46:54.969Z,1.07
2018-04-10T18:49:22.512Z,1.23
2018-04-10T18:51:50.848Z,1.23
2018-04-10T18:54:18.405Z,1.20
2018-04-10T18:56:45.989Z,1.53
2018-04-10T18:59:13.544Z,6.80
2018-04-10T19:01:41.116Z,5.17
2018-04-10T19:04:08.670Z,3.97
2018-04-10T19:06:36.241Z,2.13
2018-04-10T19:09:04.568Z,1.30
2018-04-10T19:11:32.132Z,1.90
2018-04-10T19:13:59.680Z,5.37
2018-04-10T19:16:27.248Z,1.10
2018-04-10T19:18:54.817Z,0.90
2018-04-10T19:21:22.377Z,0.90
2018-04-10T19:23:49.969Z,0.87
2018-04-10T19:26:18.285Z,0.67
2018-04-10T19:28:46.524Z,0.80
2018-04-10T19:31:14.839Z,0.90
2018-04-10T19:33:42.412Z,0.93
2018-04-10T19:36:10.730Z,1.43
2018-04-10T19:38:38.298Z,0.97
2018-04-10T19:41:06.603Z,1.30
2018-04-10T19:43:34.961Z,1.20
2018-04-10T19:46:02.556Z,2.30
2018-04-10T19:48:30.171Z,2.13
2018-04-10T19:50:57.732Z,2.60
2018-04-10T19:53:25.301Z,1.40
2018-04-10T19:55:54.133Z,1.43
2018-04-10T19:58:21.709Z,1.53
2018-04-10T20:00:49.262Z,3.30
2018-04-10T20:03:16.840Z,3.47
2018-04-10T20:05:44.387Z,1.20
2018-04-10T20:08:11.957Z,0.77
2018-04-10T20:10:39.513Z,0.80
2018-04-10T20:13:07.132Z,1.50
2018-04-10T20:15:35.510Z,3.47
2018-04-10T20:18:03.104Z,9.87
2018-04-10T20:20:30.660Z,1.30
2018-04-10T20:22:58.228Z,1.47
2018-04-10T20:25:25.769Z,3.57
2018-04-10T20:27:53.343Z,8.20
2018-04-10T20:30:20.900Z,1.80
2018-04-10T20:32:48.513Z,1.10
2018-04-10T20:35:16.049Z,0.80
2018-04-10T20:37:44.421Z,0.70
2018-04-10T20:40:12.751Z,0.90
2018-04-10T20:42:40.296Z,0.80
2018-04-10T20:45:07.864Z,1.07
2018-04-10T20:47:38.358Z,0.70
2018-04-10T20:50:08.877Z,1.50
2018-04-10T20:52:40.863Z,14.50
2018-04-10T20:55:10.186Z,9.90
2018-04-10T20:57:38.852Z,15.03
2018-04-10T21:00:07.732Z,2.63
2018-04-10T21:02:35.272Z,6.80
2018-04-10T21:05:04.392Z,4.03
2018-04-10T21:07:31.931Z,3.87
2018-04-10T21:09:59.501Z,12.43
2018-04-10T21:12:27.036Z,3.13
2018-04-10T21:14:54.613Z,1.13
2018-04-10T21:17:22.820Z,5.47
2018-04-10T21:19:50.962Z,2.57
2018-04-10T21:22:22.173Z,1.10
2018-04-10T21:25:01.964Z,1.00
2018-04-10T21:27:29.521Z,1.27
2018-04-10T21:32:37.427Z,1.20
2018-04-10T21:35:08.973Z,1.73
2018-04-10T21:37:41.534Z,1.10
2018-04-10T21:40:10.549Z,2.73
2018-04-10T21:42:44.577Z,2.27
2018-04-10T21:45:12.550Z,1.43
2018-04-10T21:47:40.097Z,0.70
2018-04-10T21:50:07.659Z,0.83
2018-04-10T21:52:35.223Z,1.83
2018-04-10T21:55:02.788Z,3.50
2018-04-10T21:57:30.337Z,2.93
2018-04-10T21:59:57.900Z,2.07
2018-04-10T22:02:25.727Z,1.83
2018-04-10T22:04:53.298Z,1.17
2018-04-10T22:07:20.833Z,1.00
2018-04-10T22:09:48.395Z,1.27
2018-04-10T22:12:16.696Z,0.90
2018-04-10T22:14:44.236Z,1.23
2018-04-10T22:17:11.807Z,1.07
2018-04-10T22:19:39.354Z,1.00
2018-04-10T22:22:06.926Z,1.20
2018-04-10T22:24:34.483Z,0.83
2018-04-10T22:27:02.047Z,1.00
2018-04-10T22:29:29.592Z,0.90
2018-04-10T22:31:57.160Z,0.80
2018-04-10T22:34:24.665Z,0.77
2018-04-10T22:36:52.225Z,0.87
2018-04-10T22:39:20.539Z,0.70
2018-04-10T22:41:48.117Z,0.97
2018-04-10T22:44:15.661Z,0.73
2018-04-10T22:46:43.291Z,0.80
2018-04-10T22:49:10.836Z,0.80
2018-04-10T22:51:39.169Z,3.10
2018-04-10T22:54:06.709Z,3.23
2018-04-10T22:56:34.274Z,1.30
2018-04-10T22:59:01.819Z,4.63
2018-04-10T23:01:29.382Z,2.30
2018-04-10T23:03:56.929Z,0.90
2018-04-10T23:06:24.501Z,1.67
2018-04-10T23:08:52.070Z,6.70
2018-04-10T23:11:19.641Z,2.13
2018-04-10T23:13:47.185Z,0.80
2018-04-10T23:16:14.766Z,1.77
2018-04-10T23:18:42.312Z,2.70
2018-04-10T23:21:09.890Z,6.53
2018-04-10T23:23:37.629Z,3.33
2018-04-10T23:26:05.206Z,3.30
2018-04-10T23:28:32.753Z,1.70
2018-04-10T23:31:00.292Z,2.07
2018-04-10T23:33:28.629Z,1.60
2018-04-10T23:35:56.173Z,1.60
2018-04-10T23:38:23.749Z,1.20
2018-04-10T23:40:51.297Z,1.30
2018-04-10T23:43:18.872Z,1.00
2018-04-10T23:45:46.416Z,0.90
2018-04-10T23:48:13.981Z,1.03
2018-04-10T23:50:42.291Z,0.80
2018-04-10T23:53:09.857Z,1.00
2018-04-10T23:55:37.418Z,0.93
2018-04-10T23:58:05.762Z,0.80
